sensor_id;sensor_type;location;lat;lon;timestamp;P1;durP1;ratioP1;P2;durP2;ratioP2
55647;SDS011;45266;48.756;9.246;2022-12-10T00:01:03;33.43;;;22.37;;
55647;SDS011;45266;48.756;9.246;2022-12-10T00:02:06;38.27;;;22.37;;
55647;SDS011;45266;48.756;9.246;2022-12-10T00:03:07;37.10;;;23.20;;
55647;SDS011;45266;48.756;9.246;2022-12-10T00:04:10;39.57;;;23.77;;
55647;SDS011;45266;48.756;9.246;2022-12-10T00:05:12;36.33;;;23.03;;
55647;SDS011;45266;48.756;9.246;2022-12-10T00:06:18;35.53;;;22.70;;
55647;SDS011;45266;48.756;9.246;2022-12-10T00:07:23;39.13;;;23.60;;
55647;SDS011;45266;48.756;9.246;2022-12-10T00:08:24;34.67;;;22.37;;
55647;SDS011;45266;48.756;9.246;2022-12-10T00:09:26;36.50;;;22.63;;
55647;SDS011;45266;48.756;9.246;2022-12-10T00:10:28;38.43;;;23.07;;
55647;SDS011;45266;48.756;9.246;2022-12-10T00:11:30;39.30;;;24.20;;
55647;SDS011;45266;48.756;9.246;2022-12-10T00:12:32;37.67;;;24.87;;
55647;SDS011;45266;48.756;9.246;2022-12-10T00:13:34;39.17;;;23.17;;
55647;SDS011;45266;48.756;9.246;2022-12-10T00:14:37;35.57;;;23.03;;
55647;SDS011;45266;48.756;9.246;2022-12-10T00:15:39;37.77;;;23.93;;
55647;SDS011;45266;48.756;9.246;2022-12-10T00:16:41;36.97;;;23.90;;
55647;SDS011;45266;48.756;9.246;2022-12-10T00:17:43;38.53;;;24.67;;
55647;SDS011;45266;48.756;9.246;2022-12-10T00:18:45;36.57;;;22.63;;
55647;SDS011;45266;48.756;9.246;2022-12-10T00:19:47;35.53;;;23.20;;
55647;SDS011;45266;48.756;9.246;2022-12-10T00:20:48;36.33;;;23.20;;
55647;SDS011;45266;48.756;9.246;2022-12-10T00:21:50;37.20;;;23.50;;
55647;SDS011;45266;48.756;9.246;2022-12-10T00:22:52;39.30;;;24.73;;
55647;SDS011;45266;48.756;9.246;2022-12-10T00:23:54;36.43;;;23.70;;
55647;SDS011;45266;48.756;9.246;2022-12-10T00:24:56;39.23;;;24.37;;
55647;SDS011;45266;48.756;9.246;2022-12-10T00:26:05;37.83;;;23.47;;
55647;SDS011;45266;48.756;9.246;2022-12-10T00:27:08;40.83;;;23.57;;
55647;SDS011;45266;48.756;9.246;2022-12-10T00:28:09;40.73;;;23.47;;
55647;SDS011;45266;48.756;9.246;2022-12-10T00:29:11;41.33;;;24.13;;
55647;SDS011;45266;48.756;9.246;2022-12-10T00:30:13;36.97;;;23.60;;
55647;SDS011;45266;48.756;9.246;2022-12-10T00:31:16;35.93;;;24.13;;
55647;SDS011;45266;48.756;9.246;2022-12-10T00:32:22;37.30;;;22.87;;
55647;SDS011;45266;48.756;9.246;2022-12-10T00:33:24;38.33;;;24.20;;
55647;SDS011;45266;48.756;9.246;2022-12-10T00:34:25;35.60;;;22.50;;
55647;SDS011;45266;48.756;9.246;2022-12-10T00:35:27;36.07;;;23.60;;
55647;SDS011;45266;48.756;9.246;2022-12-10T00:36:30;35.60;;;23.57;;
55647;SDS011;45266;48.756;9.246;2022-12-10T00:37:38;39.23;;;24.17;;
55647;SDS011;45266;48.756;9.246;2022-12-10T00:38:40;40.53;;;24.73;;
55647;SDS011;45266;48.756;9.246;2022-12-10T00:39:44;39.57;;;25.40;;
55647;SDS011;45266;48.756;9.246;2022-12-10T00:40:46;39.73;;;23.93;;
55647;SDS011;45266;48.756;9.246;2022-12-10T00:41:47;37.57;;;23.97;;
55647;SDS011;45266;48.756;9.246;2022-12-10T00:42:50;38.57;;;24.73;;
55647;SDS011;45266;48.756;9.246;2022-12-10T00:43:52;37.03;;;24.53;;
55647;SDS011;45266;48.756;9.246;2022-12-10T00:44:53;39.13;;;25.00;;
55647;SDS011;45266;48.756;9.246;2022-12-10T00:45:55;41.13;;;25.93;;
55647;SDS011;45266;48.756;9.246;2022-12-10T00:46:57;40.67;;;26.20;;
55647;SDS011;45266;48.756;9.246;2022-12-10T00:47:59;46.03;;;28.33;;
55647;SDS011;45266;48.756;9.246;2022-12-10T00:49:01;45.03;;;26.00;;
55647;SDS011;45266;48.756;9.246;2022-12-10T00:50:04;44.50;;;26.30;;
55647;SDS011;45266;48.756;9.246;2022-12-10T00:52:09;39.67;;;24.53;;
55647;SDS011;45266;48.756;9.246;2022-12-10T00:53:11;43.90;;;24.73;;
55647;SDS011;45266;48.756;9.246;2022-12-10T00:54:12;40.57;;;25.50;;
55647;SDS011;45266;48.756;9.246;2022-12-10T00:55:14;38.53;;;24.27;;
55647;SDS011;45266;48.756;9.246;2022-12-10T00:56:17;40.47;;;24.63;;
55647;SDS011;45266;48.756;9.246;2022-12-10T00:57:20;35.67;;;23.33;;
55647;SDS011;45266;48.756;9.246;2022-12-10T00:58:22;41.07;;;26.00;;
55647;SDS011;45266;48.756;9.246;2022-12-10T00:59:24;40.70;;;24.17;;
55647;SDS011;45266;48.756;9.246;2022-12-10T01:00:26;41.63;;;25.73;;
55647;SDS011;45266;48.756;9.246;2022-12-10T01:02:29;38.00;;;23.90;;
55647;SDS011;45266;48.756;9.246;2022-12-10T01:03:31;37.23;;;24.00;;
55647;SDS011;45266;48.756;9.246;2022-12-10T01:04:33;37.27;;;21.77;;
55647;SDS011;45266;48.756;9.246;2022-12-10T01:05:34;37.47;;;23.90;;
55647;SDS011;45266;48.756;9.246;2022-12-10T01:06:40;36.47;;;22.90;;
55647;SDS011;45266;48.756;9.246;2022-12-10T01:07:42;36.37;;;23.87;;
55647;SDS011;45266;48.756;9.246;2022-12-10T01:08:44;37.60;;;23.17;;
55647;SDS011;45266;48.756;9.246;2022-12-10T01:09:46;36.87;;;23.67;;
55647;SDS011;45266;48.756;9.246;2022-12-10T01:10:52;39.67;;;24.73;;
55647;SDS011;45266;48.756;9.246;2022-12-10T01:11:55;40.60;;;24.47;;
55647;SDS011;45266;48.756;9.246;2022-12-10T01:12:58;37.47;;;23.37;;
55647;SDS011;45266;48.756;9.246;2022-12-10T01:14:00;41.67;;;23.77;;
55647;SDS011;45266;48.756;9.246;2022-12-10T01:15:02;36.80;;;24.07;;
55647;SDS011;45266;48.756;9.246;2022-12-10T01:16:05;37.20;;;22.57;;
55647;SDS011;45266;48.756;9.246;2022-12-10T01:17:08;38.17;;;24.03;;
55647;SDS011;45266;48.756;9.246;2022-12-10T01:18:10;36.73;;;22.93;;
55647;SDS011;45266;48.756;9.246;2022-12-10T01:19:12;38.10;;;22.93;;
55647;SDS011;45266;48.756;9.246;2022-12-10T01:20:14;36.67;;;22.60;;
55647;SDS011;45266;48.756;9.246;2022-12-10T01:21:17;35.90;;;23.80;;
55647;SDS011;45266;48.756;9.246;2022-12-10T01:22:19;35.27;;;22.30;;
55647;SDS011;45266;48.756;9.246;2022-12-10T01:23:21;39.87;;;25.37;;
55647;SDS011;45266;48.756;9.246;2022-12-10T01:24:24;36.37;;;23.50;;
55647;SDS011;45266;48.756;9.246;2022-12-10T01:25:27;34.23;;;23.57;;
55647;SDS011;45266;48.756;9.246;2022-12-10T01:26:31;34.33;;;21.47;;
55647;SDS011;45266;48.756;9.246;2022-12-10T01:27:34;35.60;;;21.47;;
55647;SDS011;45266;48.756;9.246;2022-12-10T01:28:37;35.40;;;22.57;;
55647;SDS011;45266;48.756;9.246;2022-12-10T01:29:39;37.63;;;23.87;;
55647;SDS011;45266;48.756;9.246;2022-12-10T01:30:41;39.83;;;23.10;;
55647;SDS011;45266;48.756;9.246;2022-12-10T01:31:43;38.83;;;24.73;;
55647;SDS011;45266;48.756;9.246;2022-12-10T01:32:45;36.00;;;22.87;;
55647;SDS011;45266;48.756;9.246;2022-12-10T01:33:47;37.07;;;23.50;;
55647;SDS011;45266;48.756;9.246;2022-12-10T01:34:50;37.67;;;22.90;;
55647;SDS011;45266;48.756;9.246;2022-12-10T01:35:52;34.97;;;22.77;;
55647;SDS011;45266;48.756;9.246;2022-12-10T01:36:53;35.47;;;23.00;;
55647;SDS011;45266;48.756;9.246;2022-12-10T01:37:55;35.57;;;23.17;;
55647;SDS011;45266;48.756;9.246;2022-12-10T01:38:57;37.07;;;22.90;;
55647;SDS011;45266;48.756;9.246;2022-12-10T01:40:00;34.97;;;24.37;;
55647;SDS011;45266;48.756;9.246;2022-12-10T01:41:02;35.33;;;23.27;;
55647;SDS011;45266;48.756;9.246;2022-12-10T01:42:03;29.33;;;21.10;;
55647;SDS011;45266;48.756;9.246;2022-12-10T01:43:09;36.00;;;22.00;;
55647;SDS011;45266;48.756;9.246;2022-12-10T01:45:16;36.73;;;22.60;;
55647;SDS011;45266;48.756;9.246;2022-12-10T01:46:18;36.13;;;22.83;;
55647;SDS011;45266;48.756;9.246;2022-12-10T01:47:20;35.90;;;22.50;;
55647;SDS011;45266;48.756;9.246;2022-12-10T01:48:22;34.37;;;21.50;;
55647;SDS011;45266;48.756;9.246;2022-12-10T01:49:34;33.87;;;21.83;;
55647;SDS011;45266;48.756;9.246;2022-12-10T01:50:38;34.73;;;22.13;;
55647;SDS011;45266;48.756;9.246;2022-12-10T01:51:42;33.13;;;21.63;;
55647;SDS011;45266;48.756;9.246;2022-12-10T01:52:45;34.43;;;22.73;;
55647;SDS011;45266;48.756;9.246;2022-12-10T01:53:47;37.80;;;23.30;;
55647;SDS011;45266;48.756;9.246;2022-12-10T01:54:49;33.97;;;22.07;;
55647;SDS011;45266;48.756;9.246;2022-12-10T01:55:51;35.10;;;22.80;;
55647;SDS011;45266;48.756;9.246;2022-12-10T01:56:59;37.37;;;23.50;;
55647;SDS011;45266;48.756;9.246;2022-12-10T01:58:02;37.33;;;23.13;;
55647;SDS011;45266;48.756;9.246;2022-12-10T01:59:04;35.50;;;21.83;;
55647;SDS011;45266;48.756;9.246;2022-12-10T02:00:07;35.47;;;23.23;;
55647;SDS011;45266;48.756;9.246;2022-12-10T02:01:10;34.67;;;21.77;;
55647;SDS011;45266;48.756;9.246;2022-12-10T02:03:44;33.60;;;21.73;;
55647;SDS011;45266;48.756;9.246;2022-12-10T02:06:50;35.13;;;21.37;;
55647;SDS011;45266;48.756;9.246;2022-12-10T02:08:13;33.80;;;21.40;;
55647;SDS011;45266;48.756;9.246;2022-12-10T02:09:31;36.97;;;22.67;;
55647;SDS011;45266;48.756;9.246;2022-12-10T02:10:46;33.53;;;20.83;;
55647;SDS011;45266;48.756;9.246;2022-12-10T02:14:22;32.77;;;21.13;;
55647;SDS011;45266;48.756;9.246;2022-12-10T02:15:47;34.40;;;21.70;;
55647;SDS011;45266;48.756;9.246;2022-12-10T02:16:55;35.00;;;21.80;;
55647;SDS011;45266;48.756;9.246;2022-12-10T02:19:09;32.63;;;20.80;;
55647;SDS011;45266;48.756;9.246;2022-12-10T02:20:47;33.13;;;20.93;;
55647;SDS011;45266;48.756;9.246;2022-12-10T02:21:52;33.10;;;21.17;;
55647;SDS011;45266;48.756;9.246;2022-12-10T02:23:07;35.10;;;21.77;;
55647;SDS011;45266;48.756;9.246;2022-12-10T02:24:15;35.77;;;21.23;;
55647;SDS011;45266;48.756;9.246;2022-12-10T02:25:23;33.73;;;21.60;;
55647;SDS011;45266;48.756;9.246;2022-12-10T02:27:15;32.07;;;20.90;;
55647;SDS011;45266;48.756;9.246;2022-12-10T02:28:03;30.90;;;20.77;;
55647;SDS011;45266;48.756;9.246;2022-12-10T02:30:25;34.47;;;22.07;;
55647;SDS011;45266;48.756;9.246;2022-12-10T02:31:28;32.37;;;21.23;;
55647;SDS011;45266;48.756;9.246;2022-12-10T02:32:33;33.70;;;20.87;;
55647;SDS011;45266;48.756;9.246;2022-12-10T02:33:40;29.33;;;19.73;;
55647;SDS011;45266;48.756;9.246;2022-12-10T02:34:48;32.67;;;20.60;;
55647;SDS011;45266;48.756;9.246;2022-12-10T02:35:54;32.97;;;22.03;;
55647;SDS011;45266;48.756;9.246;2022-12-10T02:36:59;33.63;;;20.50;;
55647;SDS011;45266;48.756;9.246;2022-12-10T02:38:08;32.03;;;21.27;;
55647;SDS011;45266;48.756;9.246;2022-12-10T02:39:14;30.60;;;20.93;;
55647;SDS011;45266;48.756;9.246;2022-12-10T02:40:23;32.67;;;21.37;;
55647;SDS011;45266;48.756;9.246;2022-12-10T02:41:33;33.17;;;20.93;;
55647;SDS011;45266;48.756;9.246;2022-12-10T02:42:38;34.23;;;21.70;;
55647;SDS011;45266;48.756;9.246;2022-12-10T02:43:43;34.20;;;21.30;;
55647;SDS011;45266;48.756;9.246;2022-12-10T02:44:47;34.63;;;20.90;;
55647;SDS011;45266;48.756;9.246;2022-12-10T02:45:50;32.10;;;21.33;;
55647;SDS011;45266;48.756;9.246;2022-12-10T02:46:53;32.50;;;21.17;;
55647;SDS011;45266;48.756;9.246;2022-12-10T02:47:58;33.17;;;20.80;;
55647;SDS011;45266;48.756;9.246;2022-12-10T02:49:02;32.97;;;21.77;;
55647;SDS011;45266;48.756;9.246;2022-12-10T02:50:06;32.60;;;21.77;;
55647;SDS011;45266;48.756;9.246;2022-12-10T02:51:13;30.93;;;20.33;;
55647;SDS011;45266;48.756;9.246;2022-12-10T02:52:17;31.40;;;20.10;;
55647;SDS011;45266;48.756;9.246;2022-12-10T02:53:20;30.50;;;20.43;;
55647;SDS011;45266;48.756;9.246;2022-12-10T02:56:26;31.40;;;20.07;;
55647;SDS011;45266;48.756;9.246;2022-12-10T03:00:27;29.87;;;18.87;;
55647;SDS011;45266;48.756;9.246;2022-12-10T03:01:35;30.10;;;20.73;;
55647;SDS011;45266;48.756;9.246;2022-12-10T03:04:39;32.07;;;20.40;;
55647;SDS011;45266;48.756;9.246;2022-12-10T03:07:32;33.27;;;20.40;;
55647;SDS011;45266;48.756;9.246;2022-12-10T03:08:51;31.67;;;20.57;;
55647;SDS011;45266;48.756;9.246;2022-12-10T03:10:04;31.90;;;19.90;;
55647;SDS011;45266;48.756;9.246;2022-12-10T03:11:31;30.73;;;19.77;;
55647;SDS011;45266;48.756;9.246;2022-12-10T03:12:44;30.40;;;20.17;;
55647;SDS011;45266;48.756;9.246;2022-12-10T03:14:59;31.23;;;20.10;;
55647;SDS011;45266;48.756;9.246;2022-12-10T03:16:03;31.17;;;20.50;;
55647;SDS011;45266;48.756;9.246;2022-12-10T03:17:06;29.97;;;20.00;;
55647;SDS011;45266;48.756;9.246;2022-12-10T03:18:09;32.30;;;20.23;;
55647;SDS011;45266;48.756;9.246;2022-12-10T03:19:14;34.03;;;20.93;;
55647;SDS011;45266;48.756;9.246;2022-12-10T03:20:19;30.37;;;20.47;;
55647;SDS011;45266;48.756;9.246;2022-12-10T03:21:24;31.53;;;20.17;;
55647;SDS011;45266;48.756;9.246;2022-12-10T03:22:29;30.87;;;20.17;;
55647;SDS011;45266;48.756;9.246;2022-12-10T03:23:33;33.27;;;21.20;;
55647;SDS011;45266;48.756;9.246;2022-12-10T03:24:38;32.53;;;20.93;;
55647;SDS011;45266;48.756;9.246;2022-12-10T03:25:41;32.07;;;21.53;;
55647;SDS011;45266;48.756;9.246;2022-12-10T03:26:45;33.10;;;20.63;;
55647;SDS011;45266;48.756;9.246;2022-12-10T03:27:49;31.77;;;21.00;;
55647;SDS011;45266;48.756;9.246;2022-12-10T03:29:00;32.07;;;20.93;;
55647;SDS011;45266;48.756;9.246;2022-12-10T03:30:06;31.50;;;19.17;;
55647;SDS011;45266;48.756;9.246;2022-12-10T03:31:09;30.10;;;20.17;;
55647;SDS011;45266;48.756;9.246;2022-12-10T03:32:14;31.23;;;20.47;;
55647;SDS011;45266;48.756;9.246;2022-12-10T03:33:17;30.20;;;20.47;;
55647;SDS011;45266;48.756;9.246;2022-12-10T03:34:20;32.30;;;20.50;;
55647;SDS011;45266;48.756;9.246;2022-12-10T03:35:23;30.87;;;20.27;;
55647;SDS011;45266;48.756;9.246;2022-12-10T03:36:25;31.13;;;20.60;;
55647;SDS011;45266;48.756;9.246;2022-12-10T03:37:29;33.17;;;20.33;;
55647;SDS011;45266;48.756;9.246;2022-12-10T03:38:32;32.03;;;20.80;;
55647;SDS011;45266;48.756;9.246;2022-12-10T03:39:34;32.87;;;20.93;;
55647;SDS011;45266;48.756;9.246;2022-12-10T03:40:37;32.77;;;21.00;;
55647;SDS011;45266;48.756;9.246;2022-12-10T03:41:39;31.57;;;19.87;;
55647;SDS011;45266;48.756;9.246;2022-12-10T03:42:41;30.43;;;20.00;;
55647;SDS011;45266;48.756;9.246;2022-12-10T03:43:49;34.83;;;21.53;;
55647;SDS011;45266;48.756;9.246;2022-12-10T03:44:52;34.20;;;20.63;;
55647;SDS011;45266;48.756;9.246;2022-12-10T03:45:53;30.67;;;20.93;;
55647;SDS011;45266;48.756;9.246;2022-12-10T03:46:55;32.80;;;20.43;;
55647;SDS011;45266;48.756;9.246;2022-12-10T03:47:57;32.20;;;20.50;;
55647;SDS011;45266;48.756;9.246;2022-12-10T03:49:00;34.83;;;21.50;;
55647;SDS011;45266;48.756;9.246;2022-12-10T03:50:02;34.53;;;21.10;;
55647;SDS011;45266;48.756;9.246;2022-12-10T03:51:04;32.50;;;20.53;;
55647;SDS011;45266;48.756;9.246;2022-12-10T03:52:06;32.13;;;21.30;;
55647;SDS011;45266;48.756;9.246;2022-12-10T03:53:08;34.10;;;20.50;;
55647;SDS011;45266;48.756;9.246;2022-12-10T03:54:10;29.90;;;20.70;;
55647;SDS011;45266;48.756;9.246;2022-12-10T03:55:11;31.77;;;21.47;;
55647;SDS011;45266;48.756;9.246;2022-12-10T03:56:13;33.20;;;20.40;;
55647;SDS011;45266;48.756;9.246;2022-12-10T03:57:15;36.77;;;21.90;;
55647;SDS011;45266;48.756;9.246;2022-12-10T03:58:17;32.17;;;21.40;;
55647;SDS011;45266;48.756;9.246;2022-12-10T03:59:20;32.77;;;21.57;;
55647;SDS011;45266;48.756;9.246;2022-12-10T04:00:22;34.87;;;21.63;;
55647;SDS011;45266;48.756;9.246;2022-12-10T04:01:24;36.30;;;21.67;;
55647;SDS011;45266;48.756;9.246;2022-12-10T04:02:26;33.63;;;22.00;;
55647;SDS011;45266;48.756;9.246;2022-12-10T04:03:28;32.47;;;21.33;;
55647;SDS011;45266;48.756;9.246;2022-12-10T04:04:29;36.07;;;22.83;;
55647;SDS011;45266;48.756;9.246;2022-12-10T04:05:32;35.23;;;22.23;;
55647;SDS011;45266;48.756;9.246;2022-12-10T04:06:33;33.50;;;21.43;;
55647;SDS011;45266;48.756;9.246;2022-12-10T04:07:38;34.73;;;21.23;;
55647;SDS011;45266;48.756;9.246;2022-12-10T04:08:39;30.20;;;21.63;;
55647;SDS011;45266;48.756;9.246;2022-12-10T04:09:41;30.73;;;20.10;;
55647;SDS011;45266;48.756;9.246;2022-12-10T04:10:43;33.03;;;20.77;;
55647;SDS011;45266;48.756;9.246;2022-12-10T04:11:45;33.87;;;20.63;;
55647;SDS011;45266;48.756;9.246;2022-12-10T04:12:47;29.23;;;19.43;;
55647;SDS011;45266;48.756;9.246;2022-12-10T04:14:09;29.93;;;19.87;;
55647;SDS011;45266;48.756;9.246;2022-12-10T04:15:31;30.93;;;19.53;;
55647;SDS011;45266;48.756;9.246;2022-12-10T04:16:51;30.03;;;19.97;;
55647;SDS011;45266;48.756;9.246;2022-12-10T04:17:53;31.97;;;19.90;;
55647;SDS011;45266;48.756;9.246;2022-12-10T04:19:03;29.93;;;19.47;;
55647;SDS011;45266;48.756;9.246;2022-12-10T04:20:07;32.40;;;20.23;;
55647;SDS011;45266;48.756;9.246;2022-12-10T04:21:33;28.13;;;18.27;;
55647;SDS011;45266;48.756;9.246;2022-12-10T04:22:54;29.07;;;18.70;;
55647;SDS011;45266;48.756;9.246;2022-12-10T04:24:15;28.60;;;19.67;;
55647;SDS011;45266;48.756;9.246;2022-12-10T04:25:37;34.37;;;21.53;;
55647;SDS011;45266;48.756;9.246;2022-12-10T04:26:58;31.70;;;21.13;;
55647;SDS011;45266;48.756;9.246;2022-12-10T04:28:03;32.77;;;20.47;;
55647;SDS011;45266;48.756;9.246;2022-12-10T04:29:04;33.13;;;21.17;;
55647;SDS011;45266;48.756;9.246;2022-12-10T04:30:09;31.77;;;19.83;;
55647;SDS011;45266;48.756;9.246;2022-12-10T04:31:13;28.57;;;19.93;;
55647;SDS011;45266;48.756;9.246;2022-12-10T04:32:15;29.27;;;19.57;;
55647;SDS011;45266;48.756;9.246;2022-12-10T04:33:17;31.23;;;21.27;;
55647;SDS011;45266;48.756;9.246;2022-12-10T04:34:18;30.43;;;19.87;;
55647;SDS011;45266;48.756;9.246;2022-12-10T04:35:20;30.57;;;19.73;;
55647;SDS011;45266;48.756;9.246;2022-12-10T04:36:22;34.10;;;20.00;;
55647;SDS011;45266;48.756;9.246;2022-12-10T04:37:24;31.03;;;19.67;;
55647;SDS011;45266;48.756;9.246;2022-12-10T04:38:26;32.90;;;20.67;;
55647;SDS011;45266;48.756;9.246;2022-12-10T04:39:28;33.97;;;21.00;;
55647;SDS011;45266;48.756;9.246;2022-12-10T04:40:30;29.50;;;19.90;;
55647;SDS011;45266;48.756;9.246;2022-12-10T04:41:32;30.20;;;20.10;;
55647;SDS011;45266;48.756;9.246;2022-12-10T04:42:34;31.30;;;19.30;;
55647;SDS011;45266;48.756;9.246;2022-12-10T04:43:36;34.80;;;21.53;;
55647;SDS011;45266;48.756;9.246;2022-12-10T04:44:37;32.30;;;21.00;;
55647;SDS011;45266;48.756;9.246;2022-12-10T04:45:39;30.90;;;20.20;;
55647;SDS011;45266;48.756;9.246;2022-12-10T04:46:41;34.20;;;20.50;;
55647;SDS011;45266;48.756;9.246;2022-12-10T04:47:43;30.53;;;19.77;;
55647;SDS011;45266;48.756;9.246;2022-12-10T04:48:45;29.57;;;20.17;;
55647;SDS011;45266;48.756;9.246;2022-12-10T04:49:47;30.67;;;20.37;;
55647;SDS011;45266;48.756;9.246;2022-12-10T04:50:48;30.90;;;19.67;;
55647;SDS011;45266;48.756;9.246;2022-12-10T04:51:50;29.47;;;20.73;;
55647;SDS011;45266;48.756;9.246;2022-12-10T04:52:53;30.10;;;19.63;;
55647;SDS011;45266;48.756;9.246;2022-12-10T04:53:55;35.20;;;20.93;;
55647;SDS011;45266;48.756;9.246;2022-12-10T04:54:57;30.20;;;20.57;;
55647;SDS011;45266;48.756;9.246;2022-12-10T04:55:59;33.90;;;21.13;;
55647;SDS011;45266;48.756;9.246;2022-12-10T04:57:02;30.90;;;19.77;;
55647;SDS011;45266;48.756;9.246;2022-12-10T04:58:04;30.33;;;19.80;;
55647;SDS011;45266;48.756;9.246;2022-12-10T04:59:06;29.93;;;20.17;;
55647;SDS011;45266;48.756;9.246;2022-12-10T05:00:11;30.10;;;20.20;;
55647;SDS011;45266;48.756;9.246;2022-12-10T05:01:17;30.00;;;20.50;;
55647;SDS011;45266;48.756;9.246;2022-12-10T05:02:22;28.13;;;19.97;;
55647;SDS011;45266;48.756;9.246;2022-12-10T05:03:24;29.40;;;19.53;;
55647;SDS011;45266;48.756;9.246;2022-12-10T05:04:26;34.67;;;21.30;;
55647;SDS011;45266;48.756;9.246;2022-12-10T05:05:27;31.47;;;20.90;;
55647;SDS011;45266;48.756;9.246;2022-12-10T05:06:29;28.50;;;18.93;;
55647;SDS011;45266;48.756;9.246;2022-12-10T05:07:32;31.53;;;20.73;;
55647;SDS011;45266;48.756;9.246;2022-12-10T05:08:35;32.80;;;20.33;;
55647;SDS011;45266;48.756;9.246;2022-12-10T05:09:38;29.33;;;19.33;;
55647;SDS011;45266;48.756;9.246;2022-12-10T05:10:40;32.07;;;20.30;;
55647;SDS011;45266;48.756;9.246;2022-12-10T05:11:41;31.87;;;20.50;;
55647;SDS011;45266;48.756;9.246;2022-12-10T05:12:45;30.73;;;19.77;;
55647;SDS011;45266;48.756;9.246;2022-12-10T05:13:47;34.30;;;21.67;;
55647;SDS011;45266;48.756;9.246;2022-12-10T05:14:49;33.50;;;20.47;;
55647;SDS011;45266;48.756;9.246;2022-12-10T05:15:51;30.47;;;20.30;;
55647;SDS011;45266;48.756;9.246;2022-12-10T05:16:53;30.50;;;20.00;;
55647;SDS011;45266;48.756;9.246;2022-12-10T05:17:54;31.10;;;19.97;;
55647;SDS011;45266;48.756;9.246;2022-12-10T05:18:56;30.90;;;20.43;;
55647;SDS011;45266;48.756;9.246;2022-12-10T05:19:58;31.00;;;20.47;;
55647;SDS011;45266;48.756;9.246;2022-12-10T05:21:01;31.07;;;19.77;;
55647;SDS011;45266;48.756;9.246;2022-12-10T05:22:03;29.97;;;19.63;;
55647;SDS011;45266;48.756;9.246;2022-12-10T05:23:24;31.37;;;19.50;;
55647;SDS011;45266;48.756;9.246;2022-12-10T05:24:28;30.60;;;19.93;;
55647;SDS011;45266;48.756;9.246;2022-12-10T05:25:30;31.13;;;20.00;;
55647;SDS011;45266;48.756;9.246;2022-12-10T05:26:32;30.03;;;18.97;;
55647;SDS011;45266;48.756;9.246;2022-12-10T05:27:34;29.40;;;19.40;;
55647;SDS011;45266;48.756;9.246;2022-12-10T05:28:36;29.90;;;19.50;;
55647;SDS011;45266;48.756;9.246;2022-12-10T05:29:40;31.23;;;20.03;;
55647;SDS011;45266;48.756;9.246;2022-12-10T05:30:41;30.90;;;20.50;;
55647;SDS011;45266;48.756;9.246;2022-12-10T05:31:43;32.03;;;20.87;;
55647;SDS011;45266;48.756;9.246;2022-12-10T05:32:45;32.43;;;20.10;;
55647;SDS011;45266;48.756;9.246;2022-12-10T05:33:46;31.47;;;20.67;;
55647;SDS011;45266;48.756;9.246;2022-12-10T05:34:49;31.00;;;19.83;;
55647;SDS011;45266;48.756;9.246;2022-12-10T05:35:56;28.23;;;19.53;;
55647;SDS011;45266;48.756;9.246;2022-12-10T05:37:00;28.73;;;19.47;;
55647;SDS011;45266;48.756;9.246;2022-12-10T05:38:01;32.47;;;20.20;;
55647;SDS011;45266;48.756;9.246;2022-12-10T05:39:03;29.17;;;19.37;;
55647;SDS011;45266;48.756;9.246;2022-12-10T05:40:05;31.20;;;20.23;;
55647;SDS011;45266;48.756;9.246;2022-12-10T05:41:09;31.07;;;19.70;;
55647;SDS011;45266;48.756;9.246;2022-12-10T05:42:14;30.33;;;19.87;;
55647;SDS011;45266;48.756;9.246;2022-12-10T05:43:16;29.37;;;19.20;;
55647;SDS011;45266;48.756;9.246;2022-12-10T05:44:18;26.33;;;18.23;;
55647;SDS011;45266;48.756;9.246;2022-12-10T05:45:19;27.40;;;19.23;;
55647;SDS011;45266;48.756;9.246;2022-12-10T05:46:22;29.90;;;19.53;;
55647;SDS011;45266;48.756;9.246;2022-12-10T05:47:29;30.50;;;19.77;;
55647;SDS011;45266;48.756;9.246;2022-12-10T05:48:31;30.87;;;19.67;;
55647;SDS011;45266;48.756;9.246;2022-12-10T05:49:33;28.20;;;18.97;;
55647;SDS011;45266;48.756;9.246;2022-12-10T05:50:35;27.50;;;19.00;;
55647;SDS011;45266;48.756;9.246;2022-12-10T05:51:38;28.77;;;19.13;;
55647;SDS011;45266;48.756;9.246;2022-12-10T05:52:40;29.73;;;18.97;;
55647;SDS011;45266;48.756;9.246;2022-12-10T05:53:41;31.33;;;20.27;;
55647;SDS011;45266;48.756;9.246;2022-12-10T05:54:43;29.30;;;19.37;;
55647;SDS011;45266;48.756;9.246;2022-12-10T05:55:45;30.90;;;20.40;;
55647;SDS011;45266;48.756;9.246;2022-12-10T05:56:47;32.90;;;20.53;;
55647;SDS011;45266;48.756;9.246;2022-12-10T05:57:49;29.70;;;19.50;;
55647;SDS011;45266;48.756;9.246;2022-12-10T05:58:53;32.23;;;20.67;;
55647;SDS011;45266;48.756;9.246;2022-12-10T05:59:57;30.23;;;19.47;;
55647;SDS011;45266;48.756;9.246;2022-12-10T06:00:59;30.23;;;19.10;;
55647;SDS011;45266;48.756;9.246;2022-12-10T06:02:06;32.13;;;19.90;;
55647;SDS011;45266;48.756;9.246;2022-12-10T06:03:08;31.73;;;19.97;;
55647;SDS011;45266;48.756;9.246;2022-12-10T06:04:11;29.63;;;19.07;;
55647;SDS011;45266;48.756;9.246;2022-12-10T06:05:13;29.23;;;19.23;;
55647;SDS011;45266;48.756;9.246;2022-12-10T06:06:19;29.97;;;20.30;;
55647;SDS011;45266;48.756;9.246;2022-12-10T06:07:25;30.80;;;20.30;;
55647;SDS011;45266;48.756;9.246;2022-12-10T06:08:27;31.63;;;20.00;;
55647;SDS011;45266;48.756;9.246;2022-12-10T06:09:29;29.70;;;19.37;;
55647;SDS011;45266;48.756;9.246;2022-12-10T06:10:33;33.97;;;21.03;;
55647;SDS011;45266;48.756;9.246;2022-12-10T06:11:35;31.33;;;20.07;;
55647;SDS011;45266;48.756;9.246;2022-12-10T06:12:37;32.97;;;19.80;;
55647;SDS011;45266;48.756;9.246;2022-12-10T06:13:39;33.73;;;20.50;;
55647;SDS011;45266;48.756;9.246;2022-12-10T06:14:41;31.33;;;19.90;;
55647;SDS011;45266;48.756;9.246;2022-12-10T06:15:43;31.17;;;20.73;;
55647;SDS011;45266;48.756;9.246;2022-12-10T06:16:44;29.77;;;19.13;;
55647;SDS011;45266;48.756;9.246;2022-12-10T06:17:46;28.50;;;19.63;;
55647;SDS011;45266;48.756;9.246;2022-12-10T06:18:48;31.30;;;19.97;;
55647;SDS011;45266;48.756;9.246;2022-12-10T06:19:50;30.63;;;19.67;;
55647;SDS011;45266;48.756;9.246;2022-12-10T06:20:51;33.00;;;20.40;;
55647;SDS011;45266;48.756;9.246;2022-12-10T06:21:53;30.40;;;19.73;;
55647;SDS011;45266;48.756;9.246;2022-12-10T06:22:55;32.33;;;20.67;;
55647;SDS011;45266;48.756;9.246;2022-12-10T06:23:57;30.47;;;19.73;;
55647;SDS011;45266;48.756;9.246;2022-12-10T06:24:59;31.77;;;20.73;;
55647;SDS011;45266;48.756;9.246;2022-12-10T06:26:04;31.47;;;19.97;;
55647;SDS011;45266;48.756;9.246;2022-12-10T06:27:10;31.87;;;20.80;;
55647;SDS011;45266;48.756;9.246;2022-12-10T06:28:12;32.87;;;21.17;;
55647;SDS011;45266;48.756;9.246;2022-12-10T06:29:14;32.87;;;21.47;;
55647;SDS011;45266;48.756;9.246;2022-12-10T06:30:15;31.73;;;20.20;;
55647;SDS011;45266;48.756;9.246;2022-12-10T06:31:17;36.03;;;20.73;;
55647;SDS011;45266;48.756;9.246;2022-12-10T06:32:19;31.53;;;19.90;;
55647;SDS011;45266;48.756;9.246;2022-12-10T06:33:21;33.03;;;20.77;;
55647;SDS011;45266;48.756;9.246;2022-12-10T06:34:23;31.37;;;20.30;;
55647;SDS011;45266;48.756;9.246;2022-12-10T06:35:25;34.33;;;20.97;;
55647;SDS011;45266;48.756;9.246;2022-12-10T06:36:27;36.73;;;21.07;;